Time;durP1;ratioP1;P1;durP2;ratioP2;P2;SDS_P1;SDS_P2;PMS_P1;PMS_P2;Temp;Humidity;BMP_temperature;BMP_pressure;BME280_temperature;BME280_humidity;BME280_pressure;Samples;Min_cycle;Max_cycle;Signal;HPM_P1;HPM_P2
2023/06/28 05:02:27;;;;;;;3.05;1.38;;;18.60;83.50;;;;;;5540553;23;20350;-75
2023/06/28 05:04:53;;;;;;;4.47;1.80;;;18.90;83.30;;;;;;5018192;28;20037;-73
2023/06/28 05:07:19;;;;;;;4.60;1.55;;;18.80;83.20;;;;;;5005543;28;20203;-76
2023/06/28 05:09:44;;;;;;;3.45;1.40;;;18.80;83.30;;;;;;5005977;28;20018;-73
2023/06/28 05:12:10;;;;;;;4.25;1.70;;;18.90;82.20;;;;;;5023345;28;20038;-73
2023/06/28 05:14:36;;;;;;;3.75;1.67;;;19.00;82.30;;;;;;5006806;28;20033;-77
2023/06/28 05:17:02;;;;;;;6.00;1.70;;;19.00;82.20;;;;;;5014834;28;20027;-74
2023/06/28 05:19:27;;;;;;;3.50;1.40;;;19.10;82.30;;;;;;5008860;28;20036;-75
2023/06/28 05:21:54;;;;;;;3.65;1.52;;;19.10;82.30;;;;;;5026700;28;20029;-75
2023/06/28 05:24:19;;;;;;;4.60;1.70;;;19.10;82.40;;;;;;5027200;28;20022;-75
2023/06/28 05:26:45;;;;;;;3.55;1.70;;;19.10;82.20;;;;;;5027300;28;20030;-74
2023/06/28 05:29:11;;;;;;;4.28;1.60;;;19.20;81.90;;;;;;5026801;28;20036;-76
2023/06/28 05:31:38;;;;;;;5.00;1.48;;;19.10;82.20;;;;;;5026249;28;20021;-75
2023/06/28 05:34:04;;;;;;;6.90;1.45;;;19.10;81.90;;;;;;5003085;28;20199;-74
2023/06/28 05:36:31;;;;;;;4.05;1.45;;;19.00;82.10;;;;;;5020192;28;20026;-75
2023/06/28 05:38:56;;;;;;;4.32;1.38;;;19.00;82.30;;;;;;5026880;28;20029;-73
2023/06/28 05:41:22;;;;;;;4.72;1.40;;;19.10;82.10;;;;;;5026200;28;20096;-73
2023/06/28 05:43:48;;;;;;;4.93;1.45;;;19.30;82.10;;;;;;5026598;28;20029;-75
2023/06/28 05:46:14;;;;;;;5.20;1.88;;;19.40;81.70;;;;;;5009066;28;20037;-74
2023/06/28 05:48:40;;;;;;;5.20;1.50;;;19.30;81.40;;;;;;5025442;28;20018;-73
2023/06/28 05:51:12;;;;;;;6.22;1.88;;;19.40;81.10;;;;;;5026479;28;20287;-75
2023/06/28 05:53:39;;;;;;;5.43;1.55;;;19.60;81.20;;;;;;5025863;28;20026;-75
2023/06/28 05:56:05;;;;;;;4.07;1.60;;;19.70;80.40;;;;;;5026177;28;20026;-75
2023/06/28 05:58:31;;;;;;;4.13;1.65;;;19.90;79.60;;;;;;5008037;28;20029;-75
2023/06/28 06:00:57;;;;;;;4.35;1.65;;;20.10;79.10;;;;;;5026074;28;20249;-74
2023/06/28 06:03:23;;;;;;;3.83;1.58;;;20.20;78.90;;;;;;5007666;28;20289;-74
2023/06/28 06:05:49;;;;;;;4.95;1.77;;;20.30;78.40;;;;;;4989008;28;20030;-74
2023/06/28 06:08:15;;;;;;;5.72;1.80;;;20.60;77.30;;;;;;5006122;28;20334;-74
2023/06/28 06:10:41;;;;;;;8.73;2.10;;;20.70;77.30;;;;;;4981273;28;20062;-74
2023/06/28 06:13:06;;;;;;;4.53;1.75;;;20.70;77.00;;;;;;4969769;28;20058;-75
2023/06/28 06:15:32;;;;;;;5.47;1.75;;;20.80;77.10;;;;;;4986483;28;20038;-73
2023/06/28 06:17:58;;;;;;;5.90;2.33;;;20.90;76.50;;;;;;4985738;28;20038;-75
2023/06/28 06:20:23;;;;;;;7.47;3.60;;;21.00;76.50;;;;;;4986749;28;20221;-75
2023/06/28 06:22:49;;;;;;;6.78;2.13;;;21.10;75.90;;;;;;4986348;28;20038;-74
2023/06/28 06:25:16;;;;;;;6.30;2.50;;;21.10;76.10;;;;;;4986437;28;20046;-75
2023/06/28 06:27:41;;;;;;;6.18;1.98;;;21.20;75.10;;;;;;4985186;28;20026;-76
2023/06/28 06:30:10;;;;;;;4.80;1.80;;;21.50;73.90;;;;;;4986539;28;20026;-74
2023/06/28 06:32:36;;;;;;;5.22;1.80;;;21.50;73.30;;;;;;4997642;28;20391;-75
2023/06/28 06:35:02;;;;;;;5.47;1.58;;;21.70;73.00;;;;;;4986036;28;20030;-75
2023/06/28 06:37:28;;;;;;;6.07;2.67;;;21.70;71.90;;;;;;4985636;28;20047;-74
2023/06/28 06:39:54;;;;;;;7.32;2.13;;;21.70;72.30;;;;;;4986279;28;20041;-73
2023/06/28 06:42:20;;;;;;;4.55;1.73;;;21.80;72.10;;;;;;4985977;28;20057;-74
2023/06/28 06:44:45;;;;;;;4.47;1.27;;;21.80;72.20;;;;;;4986146;28;20038;-74
2023/06/28 06:47:11;;;;;;;3.60;1.30;;;21.90;72.00;;;;;;4993556;28;20034;-73
2023/06/28 06:49:37;;;;;;;3.25;1.33;;;21.80;71.40;;;;;;5005182;28;20054;-73
2023/06/28 06:52:03;;;;;;;4.72;1.48;;;21.80;71.40;;;;;;5005195;28;20172;-75
2023/06/28 06:54:29;;;;;;;6.35;1.58;;;21.90;71.70;;;;;;5004603;28;20050;-75
2023/06/28 06:56:59;;;;;;;3.20;1.17;;;22.10;71.80;;;;;;4987690;28;20023;-74
2023/06/28 06:59:26;;;;;;;5.32;1.15;;;22.20;70.90;;;;;;5004963;28;20022;-75
2023/06/28 07:01:52;;;;;;;4.93;2.10;;;22.20;70.70;;;;;;5000641;28;20093;-73
2023/06/28 07:04:18;;;;;;;7.20;1.92;;;22.30;71.10;;;;;;5005044;28;20053;-74
2023/06/28 07:06:46;;;;;;;5.65;1.58;;;22.30;71.20;;;;;;5005030;28;20097;-73
2023/06/28 07:09:13;;;;;;;4.68;1.48;;;22.30;70.60;;;;;;5005449;28;20197;-74
2023/06/28 07:11:39;;;;;;;4.22;1.50;;;22.40;70.70;;;;;;4987607;28;20038;-73
2023/06/28 07:14:04;;;;;;;4.88;1.52;;;22.40;70.00;;;;;;5005664;28;20046;-74
2023/06/28 07:16:30;;;;;;;6.05;1.60;;;22.20;69.90;;;;;;5005294;28;20038;-73
2023/06/28 07:18:56;;;;;;;4.95;2.20;;;22.30;70.80;;;;;;5000410;28;20038;-74
2023/06/28 07:21:22;;;;;;;4.55;1.50;;;22.30;70.50;;;;;;5005352;28;20142;-73
2023/06/28 07:23:47;;;;;;;4.70;1.30;;;22.40;70.40;;;;;;5004787;28;20273;-75
2023/06/28 07:26:17;;;;;;;6.38;1.25;;;22.70;69.50;;;;;;5005162;28;20018;-74
2023/06/28 07:28:43;;;;;;;4.13;1.10;;;22.70;69.70;;;;;;5004508;28;20034;-75
2023/06/28 07:31:09;;;;;;;5.72;1.50;;;22.80;69.30;;;;;;5005008;28;20026;-73
2023/06/28 07:33:34;;;;;;;5.32;1.15;;;22.80;67.80;;;;;;4999957;28;20049;-74
2023/06/28 07:36:00;;;;;;;5.43;1.35;;;22.80;67.30;;;;;;4985540;28;20027;-74
2023/06/28 07:38:26;;;;;;;4.95;1.15;;;22.80;67.30;;;;;;4989559;28;20042;-73
2023/06/28 07:40:53;;;;;;;4.75;1.70;;;22.80;66.60;;;;;;4986532;28;20030;-72
2023/06/28 07:43:19;;;;;;;5.32;1.48;;;22.80;67.30;;;;;;5003758;28;20145;-75
2023/06/28 07:45:45;;;;;;;7.25;4.03;;;22.80;66.90;;;;;;5003731;28;20093;-73
2023/06/28 07:48:11;;;;;;;5.55;2.20;;;22.80;66.70;;;;;;4986824;28;20031;-73
2023/06/28 07:50:37;;;;;;;5.53;1.77;;;22.90;67.00;;;;;;4978776;28;20058;-75
2023/06/28 07:53:04;;;;;;;4.57;1.60;;;22.90;66.60;;;;;;4984534;28;20034;-76
2023/06/28 07:55:30;;;;;;;4.82;1.50;;;23.00;67.00;;;;;;4984235;28;20049;-76
2023/06/28 07:57:57;;;;;;;7.03;1.63;;;23.20;67.40;;;;;;4984461;28;20031;-73
2023/06/28 08:00:25;;;;;;;6.47;1.30;;;23.40;67.00;;;;;;4984573;28;20218;-75
2023/06/28 08:02:50;;;;;;;3.50;1.23;;;23.30;66.40;;;;;;4983865;28;20124;-72
2023/06/28 08:05:16;;;;;;;2.97;1.27;;;23.30;66.20;;;;;;4989789;28;20320;-76
2023/06/28 08:07:42;;;;;;;5.82;1.45;;;23.30;66.10;;;;;;4985902;28;20033;-76
2023/06/28 08:10:08;;;;;;;4.85;1.13;;;23.40;66.30;;;;;;5003988;28;20027;-73
2023/06/28 08:12:34;;;;;;;4.25;1.15;;;23.50;65.10;;;;;;5003523;28;20089;-74
2023/06/28 08:15:00;;;;;;;3.97;1.10;;;23.30;65.50;;;;;;5003989;28;20256;-75
2023/06/28 08:17:26;;;;;;;6.18;1.85;;;23.30;65.40;;;;;;5003709;28;20033;-74
2023/06/28 08:19:54;;;;;;;3.95;1.45;;;23.50;65.60;;;;;;5000554;28;20225;-73
2023/06/28 08:22:20;;;;;;;4.80;1.33;;;23.70;65.10;;;;;;5000713;28;20097;-72
2023/06/28 08:24:47;;;;;;;5.53;1.27;;;23.80;64.40;;;;;;5003117;28;20081;-73
2023/06/28 08:27:12;;;;;;;3.40;1.33;;;23.70;64.20;;;;;;5003790;28;20034;-74
2023/06/28 08:29:38;;;;;;;4.88;1.42;;;23.90;64.50;;;;;;5003316;28;20168;-75
2023/06/28 08:32:04;;;;;;;5.00;1.23;;;24.00;63.90;;;;;;5003601;28;20026;-75
2023/06/28 08:34:30;;;;;;;3.97;1.38;;;24.00;64.10;;;;;;5003853;28;20038;-75
2023/06/28 08:36:55;;;;;;;4.38;1.40;;;24.10;64.60;;;;;;4997882;28;20033;-74
2023/06/28 08:39:21;;;;;;;5.28;1.20;;;24.30;63.60;;;;;;5004515;28;20026;-76
2023/06/28 08:41:48;;;;;;;4.68;1.52;;;24.40;64.10;;;;;;4986035;28;20109;-75
2023/06/28 08:44:15;;;;;;;4.70;1.23;;;24.80;62.40;;;;;;5003472;28;20296;-74
2023/06/28 08:46:44;;;;;;;4.88;1.75;;;24.80;62.00;;;;;;5003185;28;20038;-74
2023/06/28 08:49:10;;;;;;;7.60;1.42;;;24.70;62.50;;;;;;5003035;28;20210;-76
2023/06/28 08:51:37;;;;;;;4.78;1.42;;;24.90;62.00;;;;;;4997527;28;20035;-75
2023/06/28 08:54:04;;;;;;;10.00;1.70;;;25.00;62.20;;;;;;5003192;28;20083;-75
2023/06/28 08:56:30;;;;;;;4.07;0.90;;;24.90;62.50;;;;;;5003291;28;20030;-76
2023/06/28 08:58:56;;;;;;;6.45;1.58;;;25.20;62.20;;;;;;5003118;28;20038;-77
2023/06/28 09:01:22;;;;;;;6.43;1.30;;;25.10;61.50;;;;;;5003123;28;20042;-74
2023/06/28 09:03:48;;;;;;;7.10;1.55;;;25.20;62.20;;;;;;5003024;28;20030;-74
2023/06/28 09:06:15;;;;;;;5.80;1.35;;;25.30;61.50;;;;;;5003164;28;20036;-75
2023/06/28 09:08:42;;;;;;;4.07;1.20;;;25.30;61.70;;;;;;4990651;28;20445;-75
2023/06/28 09:11:08;;;;;;;3.97;1.50;;;25.50;61.30;;;;;;5001434;28;20088;-75
2023/06/28 09:13:34;;;;;;;5.13;1.20;;;25.60;60.50;;;;;;5002665;28;20038;-75
2023/06/28 09:16:00;;;;;;;4.68;1.30;;;25.70;60.40;;;;;;5003393;28;20181;-74
2023/06/28 09:18:26;;;;;;;6.43;2.75;;;25.90;60.10;;;;;;5003345;28;20030;-76
2023/06/28 09:20:54;;;;;;;5.00;1.30;;;25.90;59.80;;;;;;5002977;28;20042;-75
2023/06/28 09:23:24;;;;;;;6.07;1.23;;;25.80;60.10;;;;;;4980541;28;20034;-77
2023/06/28 09:25:50;;;;;;;7.43;1.65;;;26.20;60.00;;;;;;5002722;28;20042;-75
2023/06/28 09:28:17;;;;;;;3.83;1.30;;;26.50;59.90;;;;;;5003417;28;20026;-77
2023/06/28 09:30:56;;;;;;;5.22;1.73;;;26.80;58.70;;;;;;5002474;28;20030;-75
2023/06/28 09:33:23;;;;;;;5.97;1.33;;;26.60;59.10;;;;;;5002686;28;20101;-77
2023/06/28 09:35:55;;;;;;;6.50;1.45;;;26.90;58.40;;;;;;5002138;28;20093;-74
2023/06/28 09:38:22;;;;;;;4.25;1.60;;;26.80;58.40;;;;;;4999141;28;20031;-75
2023/06/28 09:41:00;;;;;;;6.10;1.35;;;27.20;58.70;;;;;;5001044;28;20030;-73
2023/06/28 09:43:34;;;;;;;4.88;1.20;;;27.40;58.40;;;;;;5002962;28;20216;-73
2023/06/28 09:46:14;;;;;;;4.07;1.35;;;27.20;58.30;;;;;;4985871;28;20105;-76
2023/06/28 09:48:58;;;;;;;5.18;1.33;;;26.30;58.90;;;;;;5002383;28;20038;-75
2023/06/28 09:51:24;;;;;;;4.72;1.17;;;26.00;60.00;;;;;;5003264;28;20065;-75
2023/06/28 09:53:56;;;;;;;6.45;1.45;;;26.40;60.00;;;;;;5000393;28;20272;-75
2023/06/28 09:56:35;;;;;;;6.03;1.42;;;26.80;59.60;;;;;;5000414;28;20106;-74
2023/06/28 09:59:07;;;;;;;4.18;1.23;;;27.30;58.70;;;;;;5002788;28;20091;-74
2023/06/28 10:01:39;;;;;;;12.27;2.00;;;27.90;57.90;;;;;;5003661;28;20045;-73
2023/06/28 10:04:08;;;;;;;4.10;1.10;;;28.10;57.90;;;;;;5006598;28;20094;-74
2023/06/28 10:06:35;;;;;;;3.60;1.25;;;28.40;57.20;;;;;;5006463;28;20248;-74
2023/06/28 10:09:02;;;;;;;6.60;1.27;;;28.10;57.30;;;;;;5006263;28;20034;-75
2023/06/28 10:11:31;;;;;;;3.45;1.27;;;27.80;57.10;;;;;;5001267;28;20219;-75
2023/06/28 10:13:58;;;;;;;3.72;1.45;;;27.60;57.00;;;;;;5005807;28;20030;-76
2023/06/28 10:16:26;;;;;;;2.40;0.80;;;27.30;57.50;;;;;;5006140;28;20044;-75
2023/06/28 10:18:52;;;;;;;5.03;1.35;;;27.40;57.90;;;;;;5006265;28;20025;-76
2023/06/28 10:21:18;;;;;;;3.75;0.90;;;27.40;58.20;;;;;;5006441;28;20053;-74
2023/06/28 10:23:45;;;;;;;4.63;1.15;;;26.90;58.40;;;;;;5005814;28;20327;-74
2023/06/28 10:26:13;;;;;;;5.60;1.00;;;26.60;59.00;;;;;;4997186;28;20037;-76
2023/06/28 10:28:40;;;;;;;3.25;1.35;;;26.40;59.50;;;;;;4986142;28;20026;-73
2023/06/28 10:31:06;;;;;;;2.75;0.98;;;26.20;58.90;;;;;;4969699;28;20312;-73
2023/06/28 10:33:36;;;;;;;2.75;0.80;;;25.80;59.90;;;;;;4969683;28;20031;-74
2023/06/28 10:36:03;;;;;;;4.57;1.10;;;25.60;60.50;;;;;;4969477;28;20326;-75
2023/06/28 10:38:33;;;;;;;5.37;2.80;;;25.50;60.40;;;;;;4986797;28;20316;-75
2023/06/28 10:41:03;;;;;;;4.40;1.02;;;25.70;60.10;;;;;;4985781;28;20465;-75
2023/06/28 10:43:29;;;;;;;4.15;1.88;;;25.70;60.20;;;;;;4985204;28;20098;-72
2023/06/28 10:45:55;;;;;;;3.15;1.30;;;25.80;60.60;;;;;;4986553;28;20443;-74
2023/06/28 10:48:22;;;;;;;5.55;1.80;;;25.80;60.00;;;;;;5005790;28;20022;-73
2023/06/28 10:50:50;;;;;;;3.60;1.10;;;25.80;60.30;;;;;;5005389;28;20034;-75
2023/06/28 10:53:25;;;;;;;5.90;1.37;;;26.00;59.80;;;;;;5005585;28;20030;-76
2023/06/28 10:56:10;;;;;;;3.03;1.10;;;26.00;59.50;;;;;;5005232;28;20441;-73
2023/06/28 10:58:44;;;;;;;4.55;0.90;;;26.30;59.30;;;;;;4999567;28;20300;-73
2023/06/28 11:01:30;;;;;;;8.52;2.83;;;26.70;58.90;;;;;;5005642;28;20053;-73
2023/06/28 11:04:11;;;;;;;6.70;1.35;;;26.80;59.20;;;;;;5005002;28;20046;-77
2023/06/28 11:06:38;;;;;;;5.35;1.70;;;27.20;58.40;;;;;;4987834;28;20048;-74
2023/06/28 11:09:24;;;;;;;3.83;1.23;;;27.30;57.90;;;;;;5005392;28;20029;-74
2023/06/28 11:11:58;;;;;;;4.60;1.40;;;27.20;58.00;;;;;;5004230;28;20054;-75
2023/06/28 11:14:31;;;;;;;8.40;1.73;;;27.10;57.70;;;;;;4984860;28;20037;-76
2023/06/28 11:17:12;;;;;;;5.10;1.60;;;27.20;57.50;;;;;;4985425;28;20046;-74
2023/06/28 11:19:39;;;;;;;5.03;1.42;;;27.40;58.10;;;;;;4985212;28;20331;-75
2023/06/28 11:22:05;;;;;;;3.90;1.05;;;27.80;57.80;;;;;;4985564;28;20034;-75
2023/06/28 11:24:37;;;;;;;3.75;1.08;;;28.00;56.60;;;;;;4968421;28;20034;-74
2023/06/28 11:27:13;;;;;;;4.30;0.98;;;28.10;56.20;;;;;;4985885;28;20039;-75
2023/06/28 11:29:58;;;;;;;3.97;1.27;;;28.20;55.90;;;;;;4994766;28;20349;-73
2023/06/28 11:32:26;;;;;;;4.10;1.05;;;28.30;56.00;;;;;;5004509;28;20042;-74
2023/06/28 11:34:56;;;;;;;18.45;2.05;;;28.40;55.80;;;;;;5004282;28;20042;-73
2023/06/28 11:37:23;;;;;;;4.22;1.13;;;28.70;55.90;;;;;;5004888;28;20085;-74
2023/06/28 11:39:51;;;;;;;4.75;1.30;;;29.20;54.90;;;;;;5004107;28;20090;-72
2023/06/28 11:42:19;;;;;;;4.38;2.35;;;29.40;54.20;;;;;;5004521;28;20316;-72
2023/06/28 11:44:50;;;;;;;4.32;1.20;;;29.80;54.50;;;;;;4999050;28;20077;-72
2023/06/28 11:47:17;;;;;;;3.15;1.48;;;29.90;54.20;;;;;;5004266;28;20335;-71
2023/06/28 11:49:44;;;;;;;4.73;0.93;;;30.00;54.10;;;;;;5004196;28;20109;-73
2023/06/28 11:52:10;;;;;;;3.10;1.10;;;30.50;52.60;;;;;;5004644;28;20103;-75
2023/06/28 11:54:36;;;;;;;4.47;1.10;;;30.90;50.20;;;;;;5003795;28;20034;-70
2023/06/28 11:57:01;;;;;;;4.72;1.60;;;31.60;49.40;;;;;;5004449;28;20037;-74
2023/06/28 11:59:29;;;;;;;3.05;1.00;;;32.40;48.60;;;;;;4999401;28;20023;-74
2023/06/28 12:02:06;;;;;;;4.05;1.50;;;31.70;49.30;;;;;;5003320;28;20062;-74
2023/06/28 12:04:34;;;;;;;4.45;1.15;;;31.50;48.80;;;;;;5004006;28;20094;-72
2023/06/28 12:07:09;;;;;;;3.30;1.30;;;31.50;49.30;;;;;;5004554;28;20030;-74
2023/06/28 12:09:36;;;;;;;17.77;2.88;;;32.60;48.40;;;;;;5003617;28;20018;-74
2023/06/28 12:12:05;;;;;;;3.30;1.00;;;33.80;47.60;;;;;;5004792;28;20153;-74
2023/06/28 12:14:39;;;;;;;4.03;1.13;;;35.40;46.30;;;;;;5003834;28;20091;-71
2023/06/28 12:17:05;;;;;;;3.70;1.20;;;36.30;45.10;;;;;;4988661;28;20047;-71
2023/06/28 12:19:35;;;;;;;4.07;1.30;;;37.30;44.80;;;;;;4984588;28;20035;-75
2023/06/28 12:22:07;;;;;;;4.03;1.30;;;38.00;44.00;;;;;;4984734;28;20051;-72
2023/06/28 12:24:37;;;;;;;4.38;0.90;;;37.90;44.10;;;;;;4966678;28;20043;-74
2023/06/28 12:27:05;;;;;;;2.40;0.82;;;38.50;42.70;;;;;;4984878;28;20039;-74
2023/06/28 12:29:33;;;;;;;1.92;0.73;;;38.60;42.40;;;;;;4984665;28;20015;-73
2023/06/28 12:32:07;;;;;;;4.60;0.93;;;38.60;42.40;;;;;;4992817;28;20042;-75
2023/06/28 12:34:34;;;;;;;4.75;0.90;;;37.90;42.90;;;;;;5003736;28;20089;-74
2023/06/28 12:37:09;;;;;;;4.53;1.25;;;37.70;43.00;;;;;;4982104;28;20085;-74
2023/06/28 12:39:40;;;;;;;3.53;1.00;;;37.80;42.60;;;;;;5001149;28;20026;-74
2023/06/28 12:42:08;;;;;;;6.13;1.30;;;38.60;42.50;;;;;;4998333;28;20061;-73
2023/06/28 12:44:58;;;;;;;3.38;1.05;;;38.40;42.20;;;;;;4966903;28;20042;-74
2023/06/28 12:47:31;;;;;;;13.60;1.35;;;38.10;42.30;;;;;;4996955;28;20041;-74
2023/06/28 12:49:58;;;;;;;6.75;1.10;;;38.70;42.40;;;;;;5003131;28;20089;-73
2023/06/28 12:52:25;;;;;;;3.35;0.90;;;41.40;42.00;;;;;;5003989;28;20018;-74
2023/06/28 12:54:52;;;;;;;2.45;0.77;;;42.80;40.70;;;;;;5002925;28;20037;-73
2023/06/28 12:57:18;;;;;;;3.57;0.97;;;42.10;40.00;;;;;;5003458;28;20041;-75
2023/06/28 12:59:44;;;;;;;5.05;1.00;;;40.90;40.70;;;;;;5002680;28;20026;-75
2023/06/28 13:02:10;;;;;;;5.28;1.23;;;39.70;41.30;;;;;;5003274;28;20057;-74
2023/06/28 13:04:37;;;;;;;4.63;1.33;;;37.60;42.30;;;;;;5002711;28;20050;-75
2023/06/28 13:07:03;;;;;;;3.30;0.93;;;36.20;43.30;;;;;;5003067;28;20030;-73
2023/06/28 13:09:29;;;;;;;3.30;1.05;;;35.20;44.50;;;;;;5002980;28;20037;-73
2023/06/28 13:11:55;;;;;;;5.75;1.13;;;34.60;45.30;;;;;;5003045;28;20034;-74
2023/06/28 13:14:21;;;;;;;2.67;0.90;;;34.60;45.60;;;;;;5003335;28;20038;-73
2023/06/28 13:16:46;;;;;;;4.22;0.80;;;36.60;44.60;;;;;;5003058;28;20096;-73
2023/06/28 13:19:12;;;;;;;2.45;0.98;;;38.60;43.00;;;;;;5003452;28;20018;-73
2023/06/28 13:21:38;;;;;;;2.45;0.88;;;39.50;42.40;;;;;;5002563;28;20038;-73
2023/06/28 13:24:04;;;;;;;5.05;0.90;;;41.10;41.30;;;;;;5003095;28;20026;-72
2023/06/28 13:26:30;;;;;;;4.00;0.80;;;43.20;40.60;;;;;;5003143;28;20038;-72
2023/06/28 13:28:56;;;;;;;5.03;1.10;;;44.10;39.40;;;;;;5002710;28;20039;-74
2023/06/28 13:31:22;;;;;;;4.85;0.88;;;45.20;39.10;;;;;;5003016;28;20037;-73
2023/06/28 13:33:47;;;;;;;6.35;1.20;;;44.60;38.40;;;;;;5002339;28;20050;-75
2023/06/28 13:36:13;;;;;;;3.80;0.70;;;43.80;38.90;;;;;;5005538;28;20038;-73
2023/06/28 13:38:39;;;;;;;4.78;1.02;;;43.80;39.00;;;;;;5006508;28;20022;-73
2023/06/28 13:41:05;;;;;;;2.47;0.80;;;44.20;39.60;;;;;;5007116;28;20034;-73
2023/06/28 13:43:31;;;;;;;4.03;0.98;;;42.70;38.90;;;;;;5006741;28;20029;-74
2023/06/28 13:45:56;;;;;;;2.85;0.88;;;41.60;39.90;;;;;;5006564;28;20065;-75
2023/06/28 13:48:22;;;;;;;4.65;1.33;;;40.60;40.40;;;;;;5007018;28;20085;-74
2023/06/28 13:50:48;;;;;;;2.97;0.70;;;39.50;41.00;;;;;;4989162;28;20030;-73
2023/06/28 13:53:14;;;;;;;3.58;1.42;;;37.80;42.00;;;;;;5006581;28;20042;-74
2023/06/28 13:55:41;;;;;;;10.07;1.55;;;36.20;43.40;;;;;;5006531;28;20041;-74
2023/06/28 13:58:08;;;;;;;4.63;1.10;;;34.70;44.80;;;;;;5006387;28;20150;-74
2023/06/28 14:00:34;;;;;;;4.17;1.17;;;33.90;45.90;;;;;;5006711;28;20291;-74
2023/06/28 14:03:00;;;;;;;4.07;1.23;;;34.20;45.40;;;;;;5006176;28;20050;-72
2023/06/28 14:05:25;;;;;;;5.60;1.00;;;36.60;44.10;;;;;;5006491;28;20022;-73
2023/06/28 14:07:51;;;;;;;3.72;0.85;;;39.50;42.20;;;;;;5006313;28;20189;-74
2023/06/28 14:10:17;;;;;;;3.10;0.93;;;41.50;41.10;;;;;;5006709;28;20264;-72
2023/06/28 14:12:43;;;;;;;2.85;0.80;;;43.60;39.50;;;;;;5006049;28;20034;-73
2023/06/28 14:15:10;;;;;;;4.28;0.85;;;44.20;38.50;;;;;;5006516;28;20035;-73
2023/06/28 14:17:36;;;;;;;2.08;0.80;;;44.50;38.10;;;;;;5005910;28;20094;-76
2023/06/28 14:20:02;;;;;;;2.50;0.73;;;44.80;38.00;;;;;;5006054;28;20046;-72
2023/06/28 14:22:28;;;;;;;4.93;0.80;;;44.90;38.70;;;;;;5006626;28;20094;-73
2023/06/28 14:24:54;;;;;;;3.05;0.80;;;43.20;38.50;;;;;;5006364;28;20023;-74
2023/06/28 14:27:19;;;;;;;3.97;1.00;;;41.00;40.00;;;;;;5006332;28;20022;-72
2023/06/28 14:29:45;;;;;;;2.30;0.90;;;39.20;41.80;;;;;;5005803;28;20089;-73
2023/06/28 14:32:11;;;;;;;3.75;1.08;;;38.60;42.40;;;;;;5005607;28;20026;-72
2023/06/28 14:34:37;;;;;;;4.05;1.30;;;37.70;42.80;;;;;;5004466;28;20026;-73
2023/06/28 14:37:02;;;;;;;2.20;0.95;;;38.60;42.70;;;;;;4988676;28;20015;-74
2023/06/28 14:39:28;;;;;;;3.25;0.95;;;38.30;42.00;;;;;;5005988;28;20034;-74
2023/06/28 14:41:54;;;;;;;2.58;0.93;;;37.30;42.90;;;;;;4988279;28;20107;-72
2023/06/28 14:44:19;;;;;;;5.10;1.00;;;36.50;43.50;;;;;;5006343;28;20042;-74
2023/06/28 14:46:45;;;;;;;3.65;0.90;;;38.40;43.00;;;;;;5005015;28;20018;-75
2023/06/28 14:49:11;;;;;;;4.97;0.77;;;40.50;41.70;;;;;;5005853;28;20093;-73
2023/06/28 14:51:36;;;;;;;5.05;0.90;;;42.20;40.40;;;;;;5005616;28;20367;-74
2023/06/28 14:54:02;;;;;;;2.88;0.93;;;43.00;39.80;;;;;;5005511;28;20026;-73
2023/06/28 14:56:28;;;;;;;5.63;1.15;;;44.20;38.90;;;;;;4988355;28;20038;-74
2023/06/28 14:58:54;;;;;;;2.80;1.00;;;45.00;38.60;;;;;;5005371;28;20072;-73
2023/06/28 15:01:20;;;;;;;3.60;0.70;;;45.50;38.20;;;;;;5005297;28;20109;-73
2023/06/28 15:03:46;;;;;;;3.83;0.93;;;45.80;37.70;;;;;;5004847;28;20048;-75
2023/06/28 15:06:20;;;;;;;3.43;1.10;;;46.40;37.80;;;;;;4988003;28;20061;-76
2023/06/28 15:08:46;;;;;;;3.42;0.70;;;46.70;37.30;;;;;;5001904;28;20350;-72
2023/06/28 15:11:12;;;;;;;4.50;0.90;;;46.60;37.10;;;;;;4995355;28;20023;-75
2023/06/28 15:13:37;;;;;;;1.87;0.77;;;46.50;37.40;;;;;;4995463;28;20023;-74
2023/06/28 15:16:04;;;;;;;2.13;0.77;;;45.40;37.80;;;;;;4999047;28;20029;-72
2023/06/28 15:18:31;;;;;;;2.60;0.70;;;45.70;37.70;;;;;;4987663;28;20280;-73
2023/06/28 15:20:56;;;;;;;2.50;0.82;;;46.00;37.70;;;;;;5004622;28;20045;-72
2023/06/28 15:23:22;;;;;;;4.63;1.00;;;45.70;37.40;;;;;;5005419;28;20030;-72
2023/06/28 15:25:49;;;;;;;5.80;1.27;;;46.20;37.50;;;;;;5005026;28;20025;-73
2023/06/28 15:28:19;;;;;;;3.13;0.80;;;45.90;36.80;;;;;;5005114;28;20053;-73
2023/06/28 15:30:45;;;;;;;3.80;0.80;;;45.90;37.40;;;;;;5004547;28;20045;-73
2023/06/28 15:33:13;;;;;;;3.00;0.90;;;46.40;36.80;;;;;;5005266;28;20094;-73
2023/06/28 15:35:40;;;;;;;3.90;1.05;;;46.40;37.10;;;;;;5004646;28;20347;-73
2023/06/28 15:38:05;;;;;;;2.65;1.10;;;46.40;37.10;;;;;;5005218;28;20041;-72
2023/06/28 15:40:31;;;;;;;3.27;0.90;;;45.70;37.40;;;;;;5005036;28;20038;-72
2023/06/28 15:43:01;;;;;;;2.63;1.00;;;45.30;37.50;;;;;;5004460;28;20066;-76
2023/06/28 15:45:27;;;;;;;4.32;1.00;;;45.40;37.40;;;;;;5005469;28;20026;-74
2023/06/28 15:47:53;;;;;;;3.72;1.10;;;45.60;37.10;;;;;;5004733;28;20033;-72
2023/06/28 15:50:19;;;;;;;2.57;0.97;;;45.50;37.30;;;;;;5005823;28;20073;-74
2023/06/28 15:52:45;;;;;;;2.77;0.80;;;45.50;37.10;;;;;;5005102;28;20041;-74
2023/06/28 15:55:11;;;;;;;1.67;0.70;;;46.00;37.20;;;;;;5005337;28;20026;-73
2023/06/28 15:57:37;;;;;;;3.67;0.90;;;46.40;36.90;;;;;;5004779;28;20216;-75
2023/06/28 16:00:04;;;;;;;3.00;0.80;;;45.80;37.10;;;;;;5003291;28;20037;-76
2023/06/28 16:02:37;;;;;;;5.57;1.42;;;43.10;37.70;;;;;;5004328;28;20046;-75
2023/06/28 16:05:03;;;;;;;3.53;1.20;;;41.10;39.20;;;;;;5002780;28;20033;-73
2023/06/28 16:07:29;;;;;;;3.35;1.08;;;38.70;41.00;;;;;;5004505;28;20030;-75
2023/06/28 16:09:55;;;;;;;3.28;1.10;;;37.40;42.10;;;;;;5003974;28;20068;-75
2023/06/28 16:12:21;;;;;;;2.50;1.23;;;38.20;41.90;;;;;;5004534;28;20301;-74
2023/06/28 16:14:46;;;;;;;3.58;1.10;;;40.00;41.30;;;;;;5003977;28;20033;-74
2023/06/28 16:17:16;;;;;;;4.97;0.75;;;41.40;39.80;;;;;;5004294;28;20239;-72
2023/06/28 16:19:42;;;;;;;4.25;0.98;;;42.40;39.10;;;;;;5003878;28;20366;-75
2023/06/28 16:22:07;;;;;;;3.97;0.80;;;44.00;39.00;;;;;;5004410;28;20089;-73
2023/06/28 16:24:33;;;;;;;2.72;0.98;;;44.30;38.20;;;;;;5004457;28;20035;-74
2023/06/28 16:27:00;;;;;;;3.00;0.95;;;44.90;37.90;;;;;;5003623;28;20458;-75
2023/06/28 16:29:26;;;;;;;3.20;1.08;;;45.30;38.20;;;;;;5004043;28;20038;-74
2023/06/28 16:31:51;;;;;;;4.38;1.02;;;44.90;37.90;;;;;;4986263;28;20041;-75
2023/06/28 16:34:17;;;;;;;4.35;1.10;;;44.20;38.20;;;;;;5004114;28;20060;-76
2023/06/28 16:36:46;;;;;;;2.97;1.33;;;44.20;38.70;;;;;;5003546;28;20208;-77
2023/06/28 16:39:14;;;;;;;6.13;1.20;;;43.90;38.30;;;;;;5003797;28;20076;-77
2023/06/28 16:41:42;;;;;;;3.80;1.20;;;43.40;38.70;;;;;;4986943;28;20038;-78
2023/06/28 16:44:08;;;;;;;3.75;1.08;;;41.60;39.60;;;;;;5004076;28;20212;-78
2023/06/28 16:46:34;;;;;;;5.03;1.10;;;40.60;40.40;;;;;;4987016;28;20054;-78
2023/06/28 16:49:01;;;;;;;2.95;1.00;;;39.10;41.50;;;;;;4985788;28;20098;-77
2023/06/28 16:51:30;;;;;;;2.63;0.90;;;38.10;42.60;;;;;;5003667;28;20042;-78
2023/06/28 16:53:57;;;;;;;3.25;1.40;;;39.20;42.10;;;;;;5003306;28;20297;-77
2023/06/28 16:56:23;;;;;;;4.35;1.20;;;39.80;41.30;;;;;;4986225;28;20090;-77
2023/06/28 16:58:49;;;;;;;3.97;1.08;;;40.40;40.70;;;;;;5003117;28;20312;-78
2023/06/28 17:01:15;;;;;;;2.75;1.10;;;40.70;40.60;;;;;;4995475;28;20269;-77
2023/06/28 17:03:42;;;;;;;2.58;0.90;;;40.00;40.70;;;;;;4990443;28;20055;-79
2023/06/28 17:06:09;;;;;;;4.50;1.08;;;39.20;41.80;;;;;;4986446;28;20045;-77
2023/06/28 17:08:35;;;;;;;3.85;1.30;;;38.70;41.60;;;;;;5003721;28;20034;-79
2023/06/28 17:11:02;;;;;;;2.80;1.10;;;38.70;41.50;;;;;;5002528;28;20066;-79
2023/06/28 17:13:28;;;;;;;3.00;1.08;;;37.50;42.00;;;;;;4970484;28;20030;-79
2023/06/28 17:16:00;;;;;;;2.25;0.80;;;36.70;42.90;;;;;;5003169;28;20100;-78
2023/06/28 17:18:35;;;;;;;2.22;0.82;;;36.20;43.20;;;;;;4986380;28;20030;-81
2023/06/28 17:21:01;;;;;;;2.58;0.85;;;36.30;43.40;;;;;;4969825;28;20037;-82
2023/06/28 17:23:26;;;;;;;4.10;0.90;;;37.10;42.80;;;;;;5004110;28;20093;-80
2023/06/28 17:25:53;;;;;;;7.53;5.38;;;37.60;42.30;;;;;;4985910;28;20029;-79
2023/06/28 17:28:21;;;;;;;2.92;1.38;;;38.00;41.90;;;;;;4985858;28;20045;-80
2023/06/28 17:30:53;;;;;;;3.35;1.52;;;38.30;41.90;;;;;;5002885;28;20034;-77
2023/06/28 17:33:19;;;;;;;5.07;1.10;;;38.60;41.90;;;;;;5003238;28;20057;-76
2023/06/28 17:35:45;;;;;;;2.42;1.17;;;38.60;41.90;;;;;;4985530;28;20141;-75
2023/06/28 17:38:12;;;;;;;1.92;1.00;;;38.00;42.10;;;;;;4969827;28;20022;-77
2023/06/28 17:40:38;;;;;;;2.95;1.02;;;37.30;43.00;;;;;;5003102;28;20082;-74
2023/06/28 17:43:04;;;;;;;3.28;1.23;;;37.50;43.00;;;;;;5003031;28;20041;-76
2023/06/28 17:45:29;;;;;;;3.50;1.23;;;37.80;42.60;;;;;;5018392;28;20045;-75
2023/06/28 17:47:55;;;;;;;2.80;1.13;;;37.80;42.60;;;;;;5002656;28;20034;-75